createdAt,value
2018-08-28T00:01:43.445Z,98172.74
2018-08-28T00:04:12.156Z,98166.38
2018-08-28T00:06:40.801Z,98170.24
2018-08-28T00:09:09.489Z,98156.51
2018-08-28T00:11:38.240Z,98157.75
2018-08-28T00:14:07.274Z,98145.60
2018-08-28T00:16:36.018Z,98148.09
2018-08-28T00:19:04.930Z,98141.16
2018-08-28T00:21:33.611Z,98143.67
2018-08-28T00:24:02.279Z,98165.50
2018-08-28T00:26:31.127Z,98171.87
2018-08-28T00:28:59.747Z,98172.97
2018-08-28T00:31:28.663Z,98173.67
2018-08-28T00:33:57.358Z,98166.51
2018-08-28T00:36:26.034Z,98177.42
2018-08-28T00:38:54.961Z,98176.28
2018-08-28T00:41:23.614Z,98173.13
2018-08-28T00:43:52.270Z,98177.11
2018-08-28T00:46:20.925Z,98176.77
2018-08-28T00:48:49.820Z,98177.45
2018-08-28T00:51:19.318Z,98179.36
2018-08-28T00:53:48.962Z,98191.32
2018-08-28T00:56:17.687Z,98186.67
2018-08-28T00:58:46.617Z,98185.52
2018-08-28T01:01:15.300Z,98191.19
2018-08-28T01:03:44.179Z,98188.00
2018-08-28T01:06:12.829Z,98190.15
2018-08-28T01:08:41.782Z,98190.51
2018-08-28T01:11:10.866Z,98200.96
2018-08-28T01:13:39.537Z,98198.23
2018-08-28T01:16:08.207Z,98199.28
2018-08-28T01:18:36.886Z,98195.41
2018-08-28T01:21:05.677Z,98197.22
2018-08-28T01:23:34.701Z,98201.67
2018-08-28T01:26:03.612Z,98202.45
2018-08-28T01:28:32.682Z,98192.36
2018-08-28T01:31:01.350Z,98199.39
2018-08-28T01:33:30.183Z,98207.37
2018-08-28T01:35:58.818Z,98204.18
2018-08-28T01:38:27.794Z,98205.56
2018-08-28T01:40:56.643Z,98212.13
2018-08-28T01:43:26.121Z,98213.28
2018-08-28T01:45:55.709Z,98209.42
2018-08-28T01:48:24.400Z,98217.50
2018-08-28T01:50:53.425Z,98222.61
2018-08-28T01:53:22.236Z,98222.15
2018-08-28T01:55:51.401Z,98219.42
2018-08-28T01:58:20.094Z,98214.08
2018-08-28T02:00:49.109Z,98208.06
2018-08-28T02:03:17.861Z,98209.08
2018-08-28T02:05:47.184Z,98204.06
2018-08-28T02:08:15.947Z,98198.61
2018-08-28T02:10:44.628Z,98199.73
2018-08-28T02:13:13.561Z,98191.44
2018-08-28T02:15:42.185Z,98198.47
2018-08-28T02:18:10.807Z,98189.47
2018-08-28T02:20:39.481Z,98203.83
2018-08-28T02:23:08.155Z,98207.83
2018-08-28T02:25:37.193Z,98207.34
2018-08-28T02:28:06.350Z,98202.83
2018-08-28T02:30:35.042Z,98201.04
2018-08-28T02:33:03.778Z,98201.69
2018-08-28T02:35:32.410Z,98202.37
2018-08-28T02:38:01.454Z,98202.23
2018-08-28T02:40:30.210Z,98200.88
2018-08-28T02:42:58.867Z,98206.47
2018-08-28T02:45:27.573Z,98210.55
2018-08-28T02:47:57.290Z,98205.64
2018-08-28T02:50:26.084Z,98209.64
2018-08-28T02:52:54.849Z,98218.05
2018-08-28T02:55:23.557Z,98213.81
2018-08-28T02:57:53.694Z,98220.94
2018-08-28T03:00:22.441Z,98211.95
2018-08-28T03:02:51.492Z,98210.75
2018-08-28T03:05:20.226Z,98217.11
2018-08-28T03:07:49.197Z,98217.00
2018-08-28T03:10:18.326Z,98217.83
2018-08-28T03:12:47.414Z,98223.70
2018-08-28T03:15:16.438Z,98222.63
2018-08-28T03:17:45.444Z,98221.42
2018-08-28T03:20:14.654Z,98222.79
2018-08-28T03:22:43.477Z,98231.95
2018-08-28T03:25:12.243Z,98224.72
2018-08-28T03:27:41.646Z,98227.10
2018-08-28T03:30:10.583Z,98225.02
2018-08-28T03:32:39.840Z,98225.21
2018-08-28T03:35:08.634Z,98225.33
2018-08-28T03:37:37.410Z,98226.69
2018-08-28T03:40:06.883Z,98231.13
2018-08-28T03:42:35.702Z,98239.72
2018-08-28T03:45:04.657Z,98244.63
2018-08-28T03:47:33.701Z,98245.92
2018-08-28T03:50:02.445Z,98247.63
2018-08-28T03:52:31.305Z,98238.84
2018-08-28T03:55:00.254Z,98244.91
2018-08-28T03:57:28.883Z,98249.21
2018-08-28T03:59:57.606Z,98240.73
2018-08-28T04:02:26.535Z,98244.86
2018-08-28T04:04:55.176Z,98250.53
2018-08-28T04:07:23.863Z,98253.59
2018-08-28T04:09:52.669Z,98252.66
2018-08-28T04:12:21.486Z,98254.09
2018-08-28T04:14:50.170Z,98248.04
2018-08-28T04:17:19.045Z,98255.16
2018-08-28T04:19:47.790Z,98250.92
2018-08-28T04:22:16.417Z,98249.41
2018-08-28T04:24:45.118Z,98242.05
2018-08-28T04:27:13.821Z,98244.70
2018-08-28T04:29:42.542Z,98249.70
2018-08-28T04:32:11.261Z,98250.14
2018-08-28T04:34:39.985Z,98252.61
2018-08-28T04:37:09.154Z,98252.61
2018-08-28T04:39:37.809Z,98258.63
2018-08-28T04:42:06.022Z,98265.31
2018-08-28T04:44:34.710Z,98258.33
2018-08-28T04:47:03.494Z,98266.77
2018-08-28T04:49:32.299Z,98260.88
2018-08-28T04:52:00.938Z,98265.77
2018-08-28T04:54:36.328Z,98273.42
2018-08-28T04:57:05.186Z,98274.08
2018-08-28T04:59:34.228Z,98278.98
2018-08-28T05:02:02.971Z,98276.27
2018-08-28T05:04:31.780Z,98284.95
2018-08-28T05:07:01.070Z,98286.44
2018-08-28T05:09:30.027Z,98286.48
2018-08-28T05:11:58.819Z,98290.52
2018-08-28T05:14:27.541Z,98285.00
2018-08-28T05:16:56.251Z,98284.99
2018-08-28T05:19:25.273Z,98288.35
2018-08-28T05:21:54.002Z,98284.01
2018-08-28T05:24:22.678Z,98287.11
2018-08-28T05:26:51.517Z,98291.42
2018-08-28T05:29:20.286Z,98295.17
2018-08-28T05:31:49.037Z,98293.00
2018-08-28T05:34:17.759Z,98289.76
2018-08-28T05:36:46.512Z,98293.88
2018-08-28T05:39:15.321Z,98293.81
2018-08-28T05:41:44.065Z,98298.63
2018-08-28T05:44:12.969Z,98301.61
2018-08-28T05:46:41.658Z,98307.48
2018-08-28T05:49:10.495Z,98304.00
2018-08-28T05:51:39.292Z,98299.66
2018-08-28T05:54:07.961Z,98298.17
2018-08-28T05:56:36.594Z,98297.71
2018-08-28T05:59:05.371Z,98302.39
2018-08-28T06:01:34.306Z,98309.61
2018-08-28T06:04:03.422Z,98305.44
2018-08-28T06:06:32.226Z,98304.83
2018-08-28T06:09:01.076Z,98307.72
2018-08-28T06:11:29.742Z,98307.36
2018-08-28T06:13:58.406Z,98310.99
2018-08-28T06:16:27.218Z,98313.72
2018-08-28T06:18:55.978Z,98313.55
2018-08-28T06:21:24.615Z,98317.08
2018-08-28T06:23:53.427Z,98308.72
2018-08-28T06:26:22.253Z,98316.67
2018-08-28T06:28:51.005Z,98323.69
2018-08-28T06:31:19.768Z,98313.82
2018-08-28T06:33:48.488Z,98317.96
2018-08-28T06:36:17.182Z,98316.80
2018-08-28T06:38:45.834Z,98321.16
2018-08-28T06:41:14.748Z,98326.62
2018-08-28T06:43:43.420Z,98316.42
2018-08-28T06:46:12.170Z,98312.23
2018-08-28T06:48:41.068Z,98320.08
2018-08-28T06:51:09.806Z,98322.34
2018-08-28T06:53:38.583Z,98326.34
2018-08-28T06:56:07.297Z,98318.26
2018-08-28T06:58:36.049Z,98316.89
2018-08-28T07:01:04.773Z,98323.03
2018-08-28T07:03:33.497Z,98316.67
2018-08-28T07:06:02.442Z,98319.84
2018-08-28T07:08:31.196Z,98322.81
2018-08-28T07:10:59.842Z,98315.63
2018-08-28T07:13:28.686Z,98319.61
2018-08-28T07:15:57.358Z,98322.91
2018-08-28T07:18:26.373Z,98322.34
2018-08-28T07:20:55.118Z,98324.75
2018-08-28T07:23:23.929Z,98328.72
2018-08-28T07:25:52.672Z,98327.36
2018-08-28T07:28:21.438Z,98331.58
2018-08-28T07:30:50.222Z,98331.36
2018-08-28T07:33:18.893Z,98330.55
2018-08-28T07:35:47.701Z,98328.38
2018-08-28T07:38:16.457Z,98335.12
2018-08-28T07:40:45.177Z,98332.48
2018-08-28T07:43:14.159Z,98323.23
2018-08-28T07:45:42.834Z,98321.08
2018-08-28T07:48:11.804Z,98327.08
2018-08-28T07:50:40.622Z,98316.52
2018-08-28T07:53:09.538Z,98317.98
2018-08-28T07:55:38.405Z,98326.92
2018-08-28T07:58:07.074Z,98327.63
2018-08-28T08:00:35.735Z,98320.64
2018-08-28T08:03:04.445Z,98322.45
2018-08-28T08:05:33.175Z,98329.72
2018-08-28T08:08:02.062Z,98315.61
2018-08-28T08:10:30.904Z,98323.48
2018-08-28T08:12:59.592Z,98329.40
2018-08-28T08:15:28.292Z,98336.41
2018-08-28T08:17:57.081Z,98336.95
2018-08-28T08:20:25.894Z,98334.89
2018-08-28T08:22:54.594Z,98341.34
2018-08-28T08:25:23.486Z,98343.35
2018-08-28T08:27:52.403Z,98336.17
2018-08-28T08:30:21.194Z,98346.44
2018-08-28T08:32:50.053Z,98345.41
2018-08-28T08:35:19.225Z,98341.45
2018-08-28T08:37:47.994Z,98349.47
2018-08-28T08:40:16.701Z,98341.38
2018-08-28T08:42:45.430Z,98339.20
2018-08-28T08:45:14.280Z,98340.83
2018-08-28T08:47:43.063Z,98333.25
2018-08-28T08:50:11.824Z,98337.06
2018-08-28T08:52:40.508Z,98326.80
2018-08-28T08:55:09.456Z,98330.85
2018-08-28T08:57:38.396Z,98330.95
2018-08-28T09:00:07.115Z,98334.61
2018-08-28T09:02:35.790Z,98328.93
2018-08-28T09:05:04.530Z,98328.80
2018-08-28T09:07:33.280Z,98332.28
2018-08-28T09:10:02.102Z,98324.45
2018-08-28T09:12:30.961Z,98335.25
2018-08-28T09:14:59.888Z,98335.00
2018-08-28T09:17:28.574Z,98333.85
2018-08-28T09:19:57.294Z,98329.38
2018-08-28T09:22:26.550Z,98332.77
2018-08-28T09:24:55.197Z,98330.74
2018-08-28T09:27:23.998Z,98323.08
2018-08-28T09:29:52.678Z,98321.34
2018-08-28T09:32:21.380Z,98317.80
2018-08-28T09:34:50.138Z,98327.77
2018-08-28T09:37:18.827Z,98325.42
2018-08-28T09:39:47.520Z,98320.94
2018-08-28T09:42:16.194Z,98320.05
2018-08-28T09:44:44.889Z,98318.34
2018-08-28T09:47:13.673Z,98314.06
2018-08-28T09:49:42.329Z,98317.36
2018-08-28T09:52:11.103Z,98318.58
2018-08-28T09:54:39.866Z,98312.55
2018-08-28T09:57:08.632Z,98314.06
2018-08-28T09:59:37.670Z,98311.95
2018-08-28T10:02:06.771Z,98314.98
2018-08-28T10:04:35.487Z,98313.19
2018-08-28T10:07:04.278Z,98311.91
2018-08-28T10:09:33.014Z,98300.20
2018-08-28T10:12:01.847Z,98303.39
2018-08-28T10:14:30.554Z,98303.17
2018-08-28T10:16:59.378Z,98305.77
2018-08-28T10:19:28.088Z,98305.05
2018-08-28T10:21:56.794Z,98299.67
2018-08-28T10:24:25.665Z,98299.37
2018-08-28T10:26:54.394Z,98301.98
2018-08-28T10:29:23.113Z,98297.72
2018-08-28T10:31:51.797Z,98296.59
2018-08-28T10:34:20.512Z,98298.23
2018-08-28T10:36:49.554Z,98298.17
2018-08-28T10:39:18.397Z,98297.63
2018-08-28T10:41:47.163Z,98300.08
2018-08-28T10:44:15.945Z,98294.93
2018-08-28T10:46:44.885Z,98292.09
2018-08-28T10:49:13.644Z,98287.97
2018-08-28T10:51:42.545Z,98289.72
2018-08-28T10:54:11.443Z,98292.73
2018-08-28T10:56:40.375Z,98293.47
2018-08-28T10:59:09.169Z,98291.18
2018-08-28T11:01:38.093Z,98295.76
2018-08-28T11:04:06.988Z,98285.45
2018-08-28T11:06:35.620Z,98281.48
2018-08-28T11:09:05.372Z,98283.53
2018-08-28T11:11:34.035Z,98283.23
2018-08-28T11:14:02.994Z,98284.38
2018-08-28T11:16:31.629Z,98274.77
2018-08-28T11:19:00.326Z,98276.38
2018-08-28T11:21:29.007Z,98262.34
2018-08-28T11:23:57.793Z,98271.21
2018-08-28T11:26:26.474Z,98264.05
2018-08-28T11:28:55.161Z,98266.99
2018-08-28T11:31:24.507Z,98269.14
2018-08-28T11:33:53.158Z,98271.13
2018-08-28T11:36:22.007Z,98266.92
2018-08-28T11:38:50.697Z,98263.58
2018-08-28T11:41:19.406Z,98266.92
2018-08-28T11:43:48.093Z,98261.80
2018-08-28T11:46:16.779Z,98264.38
2018-08-28T11:48:45.474Z,98260.50
2018-08-28T11:51:14.937Z,98261.88
2018-08-28T11:53:43.774Z,98261.41
2018-08-28T11:56:12.521Z,98261.80
2018-08-28T11:58:41.270Z,98264.72
2018-08-28T12:01:09.922Z,98258.52
2018-08-28T12:03:38.750Z,98247.79
2018-08-28T12:06:07.523Z,98254.61
2018-08-28T12:08:36.289Z,98246.13
2018-08-28T12:11:05.017Z,98250.83
2018-08-28T12:13:33.745Z,98235.29
2018-08-28T12:16:02.647Z,98245.05
2018-08-28T12:18:31.515Z,98230.63
2018-08-28T12:21:00.249Z,98229.20
2018-08-28T12:23:29.265Z,98225.42
2018-08-28T12:25:57.923Z,98217.56
2018-08-28T12:28:26.728Z,98214.31
2018-08-28T12:30:55.495Z,98210.01
2018-08-28T12:33:24.318Z,98207.39
2018-08-28T12:35:53.037Z,98198.38
2018-08-28T12:38:21.742Z,98198.02
2018-08-28T12:40:50.694Z,98196.19
2018-08-28T12:43:19.328Z,98196.17
2018-08-28T12:45:48.012Z,98188.91
2018-08-28T12:48:16.786Z,98182.30
2018-08-28T12:50:45.627Z,98179.75
2018-08-28T12:53:14.370Z,98181.80
2018-08-28T12:55:43.064Z,98178.23
2018-08-28T12:58:11.850Z,98179.97
2018-08-28T13:00:40.656Z,98180.55
2018-08-28T13:03:09.482Z,98176.14
2018-08-28T13:05:38.327Z,98171.83
2018-08-28T13:08:07.755Z,98163.21
2018-08-28T13:10:36.438Z,98163.42
2018-08-28T13:13:05.146Z,98158.84
2018-08-28T13:15:34.044Z,98157.59
2018-08-28T13:18:03.026Z,98161.51
2018-08-28T13:20:31.840Z,98154.92
2018-08-28T13:23:00.576Z,98160.31
2018-08-28T13:25:29.303Z,98152.66
2018-08-28T13:27:58.106Z,98154.25
2018-08-28T13:30:26.982Z,98159.77
2018-08-28T13:32:55.737Z,98152.52
2018-08-28T13:35:24.460Z,98146.11
2018-08-28T13:37:53.223Z,98150.27
2018-08-28T13:40:22.051Z,98142.95
2018-08-28T13:42:50.672Z,98131.00
2018-08-28T13:45:19.366Z,98133.75
2018-08-28T13:47:48.214Z,98133.92
2018-08-28T13:50:16.874Z,98134.40
2018-08-28T13:52:45.567Z,98136.27
2018-08-28T13:55:14.459Z,98138.37
2018-08-28T13:57:43.228Z,98145.67
2018-08-28T14:00:12.141Z,98139.13
2018-08-28T14:02:40.710Z,98131.66
2018-08-28T14:05:09.779Z,98138.70
2018-08-28T14:07:38.702Z,98129.27
2018-08-28T14:10:07.527Z,98127.41
2018-08-28T14:12:36.242Z,98129.70
2018-08-28T14:15:05.214Z,98128.86
2018-08-28T14:17:33.943Z,98133.30
2018-08-28T14:20:02.678Z,98132.52
2018-08-28T14:22:31.555Z,98118.79
2018-08-28T14:25:00.084Z,98124.56
2018-08-28T14:27:28.842Z,98121.76
2018-08-28T14:29:57.563Z,98118.25
2018-08-28T14:32:26.391Z,98118.21
2018-08-28T14:34:55.163Z,98119.73
2018-08-28T14:37:23.945Z,98113.09
2018-08-28T14:39:52.681Z,98111.62
2018-08-28T14:42:21.528Z,98115.21
2018-08-28T14:44:50.242Z,98114.09
2018-08-28T14:47:19.034Z,98114.00
2018-08-28T14:49:47.911Z,98113.27
2018-08-28T14:52:16.523Z,98108.05
2018-08-28T14:54:45.192Z,98113.23
2018-08-28T14:57:14.071Z,98112.55
2018-08-28T14:59:42.778Z,98113.67
2018-08-28T15:02:11.475Z,98098.59
2018-08-28T15:04:40.230Z,98105.41
2018-08-28T15:07:09.064Z,98106.44
2018-08-28T15:09:37.730Z,98101.48
2018-08-28T15:12:06.582Z,98093.53
2018-08-28T15:14:35.273Z,98102.63
2018-08-28T15:17:04.172Z,98095.81
2018-08-28T15:19:32.842Z,98100.64
2018-08-28T15:22:01.668Z,98096.88
2018-08-28T15:24:30.521Z,98092.12
2018-08-28T15:26:59.255Z,98093.72
2018-08-28T15:29:28.030Z,98094.16
2018-08-28T15:31:57.106Z,98094.14
2018-08-28T15:34:26.729Z,98085.48
2018-08-28T15:36:55.758Z,98088.09
2018-08-28T15:39:25.367Z,98088.87
2018-08-28T15:41:54.129Z,98087.27
2018-08-28T15:44:22.802Z,98089.47
2018-08-28T15:46:51.607Z,98087.11
2018-08-28T15:49:20.356Z,98077.44
2018-08-28T15:51:49.038Z,98072.72
2018-08-28T15:54:17.865Z,98081.80
2018-08-28T15:56:46.635Z,98072.50
2018-08-28T15:59:17.077Z,98072.89
2018-08-28T16:01:45.840Z,98073.91
2018-08-28T16:04:24.287Z,98074.83
2018-08-28T16:06:53.418Z,98075.18
2018-08-28T16:09:22.168Z,98068.81
2018-08-28T16:11:50.822Z,98072.96
2018-08-28T16:14:19.519Z,98074.34
2018-08-28T16:16:48.316Z,98077.02
2018-08-28T16:19:16.977Z,98079.63
2018-08-28T16:21:51.920Z,98074.28
2018-08-28T16:24:20.883Z,98072.91
2018-08-28T16:26:49.605Z,98073.30
2018-08-28T16:29:18.374Z,98069.75
2018-08-28T16:31:47.111Z,98067.75
2018-08-28T16:34:16.008Z,98064.02
2018-08-28T16:36:44.647Z,98069.75
2018-08-28T16:39:13.299Z,98066.80
2018-08-28T16:41:41.994Z,98061.66
2018-08-28T16:44:10.917Z,98059.27
2018-08-28T16:46:40.155Z,98056.52
2018-08-28T16:49:08.906Z,98062.41
2018-08-28T16:51:37.614Z,98052.77
2018-08-28T16:54:06.390Z,98054.74
2018-08-28T16:56:35.173Z,98057.91
2018-08-28T16:59:04.113Z,98057.34
2018-08-28T17:01:32.962Z,98053.39
2018-08-28T17:04:01.652Z,98050.83
2018-08-28T17:06:32.023Z,98047.86
2018-08-28T17:09:00.819Z,98046.46
2018-08-28T17:11:31.287Z,98045.48
2018-08-28T17:13:59.973Z,98046.67
2018-08-28T17:16:31.518Z,98049.23
2018-08-28T17:19:01.672Z,98049.02
2018-08-28T17:21:31.658Z,98047.64
2018-08-28T17:24:00.450Z,98048.04
2018-08-28T17:26:29.255Z,98056.28
2018-08-28T17:28:58.073Z,98054.88
2018-08-28T17:31:26.750Z,98058.42
2018-08-28T17:33:55.848Z,98054.42
2018-08-28T17:36:24.614Z,98057.52
2018-08-28T17:38:53.458Z,98055.06
2018-08-28T17:41:22.216Z,98056.01
2018-08-28T17:43:50.882Z,98059.91
2018-08-28T17:46:19.593Z,98059.88
2018-08-28T17:48:48.321Z,98066.30
2018-08-28T17:51:17.035Z,98063.05
2018-08-28T17:53:45.830Z,98064.73
2018-08-28T17:56:14.724Z,98066.39
2018-08-28T17:58:43.740Z,98064.52
2018-08-28T18:01:12.985Z,98077.61
2018-08-28T18:03:41.742Z,98073.61
2018-08-28T18:06:10.567Z,98070.72
2018-08-28T18:08:39.261Z,98082.27
2018-08-28T18:11:08.301Z,98081.53
2018-08-28T18:13:37.069Z,98077.70
2018-08-28T18:16:05.715Z,98080.37
2018-08-28T18:18:34.672Z,98082.48
2018-08-28T18:21:03.422Z,98082.32
2018-08-28T18:23:33.265Z,98083.20
2018-08-28T18:26:01.897Z,98081.53
2018-08-28T18:28:30.545Z,98078.28
2018-08-28T18:30:59.177Z,98086.20
2018-08-28T18:33:27.799Z,98092.97
2018-08-28T18:35:56.713Z,98090.33
2018-08-28T18:38:25.376Z,98095.31
2018-08-28T18:40:54.729Z,98087.58
2018-08-28T18:43:23.397Z,98089.09
2018-08-28T18:45:52.231Z,98094.69
2018-08-28T18:48:21.553Z,98082.59
2018-08-28T18:50:50.536Z,98089.38
2018-08-28T18:53:19.234Z,98090.86
2018-08-28T18:55:47.974Z,98091.91
2018-08-28T18:58:16.793Z,98088.53
2018-08-28T19:00:45.728Z,98083.64
2018-08-28T19:03:14.381Z,98086.85
2018-08-28T19:05:43.046Z,98080.86
2018-08-28T19:08:11.758Z,98081.83
2018-08-28T19:10:40.427Z,98083.52
2018-08-28T19:13:09.353Z,98081.45
2018-08-28T19:15:38.030Z,98088.17
2018-08-28T19:18:06.963Z,98094.53
2018-08-28T19:20:35.677Z,98089.70
2018-08-28T19:23:04.321Z,98098.25
2018-08-28T19:25:33.202Z,98103.22
2018-08-28T19:28:01.946Z,98104.09
2018-08-28T19:30:30.840Z,98095.65
2018-08-28T19:32:59.669Z,98105.28
2018-08-28T19:35:28.381Z,98101.48
2018-08-28T19:37:57.346Z,98103.78
2018-08-28T19:40:26.221Z,98094.09
2018-08-28T19:42:54.912Z,98094.98
2018-08-28T19:45:23.617Z,98096.27
2018-08-28T19:47:52.321Z,98091.88
2018-08-28T19:50:21.083Z,98085.88
2018-08-28T19:52:49.767Z,98085.14
2018-08-28T19:55:18.594Z,98088.15
2018-08-28T19:57:47.310Z,98080.87
2018-08-28T20:00:16.037Z,98083.45
2018-08-28T20:02:44.896Z,98084.45
2018-08-28T20:05:13.570Z,98083.67
2018-08-28T20:07:42.470Z,98086.83
2018-08-28T20:10:11.293Z,98083.22
2018-08-28T20:12:40.053Z,98084.06
2018-08-28T20:15:09.188Z,98086.70
2018-08-28T20:17:37.930Z,98083.00
2018-08-28T20:20:06.834Z,98087.93
2018-08-28T20:22:35.601Z,98085.02
2018-08-28T20:25:04.299Z,98094.85
2018-08-28T20:27:33.251Z,98091.89
2018-08-28T20:30:01.911Z,98085.31
2018-08-28T20:32:30.679Z,98083.55
2018-08-28T20:34:59.613Z,98076.31
2018-08-28T20:37:28.454Z,98081.84
2018-08-28T20:39:57.298Z,98080.62
2018-08-28T20:42:25.950Z,98091.04
2018-08-28T20:44:54.611Z,98084.67
2018-08-28T20:47:23.546Z,98078.33
2018-08-28T20:49:52.515Z,98076.95
2018-08-28T20:52:21.330Z,98071.24
2018-08-28T20:54:50.085Z,98074.94
2018-08-28T20:57:18.866Z,98073.27
2018-08-28T20:59:47.684Z,98066.89
2018-08-28T21:02:16.684Z,98076.59
2018-08-28T21:04:46.340Z,98070.93
2018-08-28T21:07:15.814Z,98070.59
2018-08-28T21:09:45.097Z,98064.36
2018-08-28T21:12:14.429Z,98067.44
2018-08-28T21:14:43.816Z,98067.36
2018-08-28T21:17:13.630Z,98063.50
2018-08-28T21:19:42.912Z,98059.41
2018-08-28T21:22:12.671Z,98062.84
2018-08-28T21:24:41.793Z,98062.86
2018-08-28T21:27:10.969Z,98059.00
2018-08-28T21:29:40.850Z,98061.98
2018-08-28T21:32:10.444Z,98052.28
2018-08-28T21:34:39.771Z,98047.39
2018-08-28T21:37:09.000Z,98048.09
2018-08-28T21:39:38.136Z,98049.12
2018-08-28T21:42:07.307Z,98054.49
2018-08-28T21:44:36.536Z,98052.91
2018-08-28T21:47:05.812Z,98053.14
2018-08-28T21:49:34.885Z,98052.02
2018-08-28T21:52:03.977Z,98046.79
2018-08-28T21:54:33.150Z,98046.12
2018-08-28T21:57:02.279Z,98047.23
2018-08-28T21:59:31.762Z,98044.53
2018-08-28T22:02:00.829Z,98042.03
2018-08-28T22:04:30.071Z,98043.84
2018-08-28T22:07:04.529Z,98043.62
2018-08-28T22:09:34.009Z,98035.20
2018-08-28T22:12:03.641Z,98030.89
2018-08-28T22:14:32.820Z,98036.70
2018-08-28T22:17:02.664Z,98030.45
2018-08-28T22:19:32.280Z,98029.18
2018-08-28T22:22:01.481Z,98033.75
2018-08-28T22:24:31.336Z,98023.97
2018-08-28T22:27:00.716Z,98027.27
2018-08-28T22:29:29.597Z,98020.67
2018-08-28T22:31:58.416Z,98014.77
2018-08-28T22:34:27.410Z,98017.94
2018-08-28T22:36:56.792Z,98017.59
2018-08-28T22:39:25.675Z,98016.48
2018-08-28T22:41:54.605Z,98012.37
2018-08-28T22:44:23.664Z,98009.61
2018-08-28T22:46:52.474Z,98010.88
2018-08-28T22:49:21.263Z,98011.09
2018-08-28T22:51:50.159Z,98012.00
2018-08-28T22:54:18.895Z,98010.41
2018-08-28T22:56:49.819Z,98007.30
2018-08-28T22:59:18.623Z,97998.11
2018-08-28T23:01:47.506Z,98005.05
2018-08-28T23:04:16.645Z,98003.78
2018-08-28T23:06:45.410Z,98001.52
2018-08-28T23:09:14.221Z,98004.23
2018-08-28T23:11:42.875Z,98002.64
2018-08-28T23:14:11.601Z,98005.34
2018-08-28T23:16:40.342Z,97998.64
2018-08-28T23:19:08.985Z,98003.27
2018-08-28T23:21:38.054Z,98005.09
2018-08-28T23:24:06.693Z,98003.81
2018-08-28T23:26:35.446Z,98012.41
2018-08-28T23:29:04.298Z,98006.28
2018-08-28T23:31:33.309Z,98004.98
2018-08-28T23:34:02.194Z,98007.92
2018-08-28T23:36:30.945Z,97997.91
2018-08-28T23:38:59.583Z,97996.41
2018-08-28T23:41:28.361Z,97995.81
2018-08-28T23:43:57.266Z,97997.05
2018-08-28T23:46:26.354Z,97992.63
2018-08-28T23:48:55.376Z,97993.31
2018-08-28T23:51:24.016Z,97985.94
2018-08-28T23:53:52.717Z,97976.64
2018-08-28T23:56:21.482Z,97970.97
2018-08-28T23:58:50.402Z,97970.83
